AIC2DM VOMM-VABB
Flight info
| Callsign | AIC2DM |
|---|---|
| Flight time | N/A |
| Altitude | 38000 |
| Route | DOLKI2A DOLKI Q8 BEDOL MOLGO2A |
| Aircraft | A20N/M-SDE2E3FGHIRWXY/LB1 |
Departure
| Time | 2026-04-26 14:00 |
|---|---|
| Airport | Chennai International Airport (VOMM) |
Arrival
| Time | N/A |
|---|---|
| Airport | Chhatrapati Shivaji Maharaj International Airport (VABB) |
| Time | Latitude | Longitude | Altitude | Speed | Heading |
|---|---|---|---|---|---|
| 2026-04-26 13:01 | 12.98224 | 80.15990 | 50 ft | 0 kts | 157° |
| 2026-04-26 13:47 | 12.98228 | 80.15988 | 50 ft | 3 kts | 146° |
| 2026-04-26 13:47 | 12.98244 | 80.15979 | 50 ft | 3 kts | 151° |
| 2026-04-26 13:48 | 12.98261 | 80.15969 | 44 ft | 3 kts | 151° |
| 2026-04-26 13:48 | 12.98278 | 80.15964 | 44 ft | 3 kts | 169° |
| 2026-04-26 13:48 | 12.98294 | 80.15966 | 48 ft | 3 kts | 234° |
| 2026-04-26 13:48 | 12.98297 | 80.15970 | 48 ft | 0 kts | 246° |
| 2026-04-26 13:52 | 12.98297 | 80.15969 | 47 ft | 0 kts | 246° |
| 2026-04-26 13:52 | 12.98291 | 80.15957 | 50 ft | 7 kts | 246° |
| 2026-04-26 13:53 | 12.98282 | 80.15918 | 50 ft | 5 kts | 258° |
| 2026-04-26 13:53 | 12.98284 | 80.15893 | 50 ft | 3 kts | 287° |
| 2026-04-26 13:53 | 12.98294 | 80.15866 | 50 ft | 6 kts | 291° |
| 2026-04-26 13:53 | 12.98308 | 80.15829 | 49 ft | 5 kts | 293° |
| 2026-04-26 13:54 | 12.98322 | 80.15794 | 50 ft | 5 kts | 289° |
| 2026-04-26 13:54 | 12.98332 | 80.15764 | 48 ft | 4 kts | 287° |
| 2026-04-26 13:54 | 12.98340 | 80.15735 | 50 ft | 4 kts | 287° |
| 2026-04-26 13:55 | 12.98356 | 80.15683 | 50 ft | 4 kts | 287° |
| 2026-04-26 13:55 | 12.98360 | 80.15667 | 49 ft | 3 kts | 284° |
| 2026-04-26 13:55 | 12.98374 | 80.15606 | 47 ft | 4 kts | 282° |
| 2026-04-26 13:56 | 12.98380 | 80.15582 | 50 ft | 0 kts | 284° |
| 2026-04-26 13:58 | 12.98380 | 80.15581 | 50 ft | 0 kts | 284° |
| 2026-04-26 13:58 | 12.98380 | 80.15579 | 50 ft | 0 kts | 284° |
| 2026-04-26 13:58 | 12.98381 | 80.15576 | 50 ft | 1 kts | 284° |
| 2026-04-26 13:58 | 12.98388 | 80.15549 | 47 ft | 6 kts | 284° |
| 2026-04-26 13:59 | 12.98403 | 80.15498 | 47 ft | 9 kts | 292° |
| 2026-04-26 13:59 | 12.98463 | 80.15459 | 51 ft | 12 kts | 17° |
| 2026-04-26 13:59 | 12.98511 | 80.15550 | 50 ft | 20 kts | 69° |
| 2026-04-26 14:00 | 12.99468 | 80.18109 | 557 ft | 201 kts | 73° |
| 2026-04-26 14:00 | 12.99982 | 80.19517 | 1152 ft | 217 kts | 75° |
| 2026-04-26 14:00 | 13.00335 | 80.20494 | 1632 ft | 222 kts | 74° |
| 2026-04-26 14:01 | 13.01043 | 80.22465 | 2559 ft | 219 kts | 73° |
| 2026-04-26 14:01 | 13.01568 | 80.23934 | 3223 ft | 219 kts | 74° |
| 2026-04-26 14:01 | 13.02088 | 80.25389 | 3918 ft | 217 kts | 73° |
| 2026-04-26 14:01 | 13.02609 | 80.26852 | 4602 ft | 217 kts | 71° |
| 2026-04-26 14:02 | 13.03142 | 80.28350 | 5091 ft | 233 kts | 71° |
| 2026-04-26 14:02 | 13.03715 | 80.29966 | 5580 ft | 249 kts | 70° |
| 2026-04-26 14:02 | 13.04641 | 80.31532 | 5787 ft | 268 kts | 44° |
| 2026-04-26 14:02 | 13.06296 | 80.32414 | 5802 ft | 274 kts | 11° |
| 2026-04-26 14:03 | 13.08183 | 80.32215 | 5792 ft | 279 kts | 338° |
| 2026-04-26 14:03 | 13.09722 | 80.31003 | 5807 ft | 284 kts | 312° |
| 2026-04-26 14:03 | 13.10928 | 80.29385 | 5800 ft | 286 kts | 306° |
| 2026-04-26 14:03 | 13.12065 | 80.27714 | 5789 ft | 286 kts | 306° |
| 2026-04-26 14:04 | 13.13193 | 80.26057 | 5804 ft | 286 kts | 306° |
| 2026-04-26 14:04 | 13.14336 | 80.24400 | 5806 ft | 286 kts | 307° |
| 2026-04-26 14:04 | 13.15502 | 80.22725 | 5799 ft | 286 kts | 307° |
| 2026-04-26 14:04 | 13.16664 | 80.21066 | 5804 ft | 286 kts | 307° |
| 2026-04-26 14:05 | 13.17829 | 80.19406 | 5804 ft | 286 kts | 307° |
| 2026-04-26 14:05 | 13.18995 | 80.17748 | 5803 ft | 286 kts | 307° |
| 2026-04-26 14:05 | 13.20163 | 80.16094 | 5802 ft | 286 kts | 308° |
| 2026-04-26 14:05 | 13.21470 | 80.14611 | 5789 ft | 283 kts | 319° |
| 2026-04-26 14:06 | 13.22973 | 80.13259 | 5801 ft | 283 kts | 322° |
| 2026-04-26 14:06 | 13.24486 | 80.11960 | 5800 ft | 283 kts | 323° |
| 2026-04-26 14:06 | 13.25998 | 80.10666 | 5788 ft | 283 kts | 323° |
| 2026-04-26 14:06 | 13.27513 | 80.09366 | 5800 ft | 283 kts | 322° |
| 2026-04-26 14:07 | 13.28988 | 80.08067 | 5801 ft | 283 kts | 319° |
| 2026-04-26 14:07 | 13.30426 | 80.06667 | 5924 ft | 287 kts | 317° |
| 2026-04-26 14:07 | 13.31854 | 80.05228 | 6535 ft | 288 kts | 317° |
| 2026-04-26 14:07 | 13.33279 | 80.03785 | 7376 ft | 287 kts | 318° |
| 2026-04-26 14:08 | 13.34700 | 80.02344 | 8171 ft | 288 kts | 319° |
| 2026-04-26 14:08 | 13.36141 | 80.00885 | 8959 ft | 291 kts | 319° |
| 2026-04-26 14:08 | 13.37588 | 79.99419 | 9749 ft | 293 kts | 320° |
| 2026-04-26 14:08 | 13.39064 | 79.97926 | 10257 ft | 306 kts | 319° |
| 2026-04-26 14:09 | 13.40631 | 79.96343 | 10559 ft | 325 kts | 319° |
| 2026-04-26 14:09 | 13.42284 | 79.94671 | 10889 ft | 341 kts | 319° |
| 2026-04-26 14:09 | 13.43996 | 79.92934 | 11398 ft | 349 kts | 318° |
| 2026-04-26 14:09 | 13.45735 | 79.91167 | 12036 ft | 353 kts | 318° |
| 2026-04-26 14:10 | 13.47488 | 79.89386 | 12666 ft | 357 kts | 317° |
| 2026-04-26 14:10 | 13.49234 | 79.87612 | 13320 ft | 359 kts | 317° |
| 2026-04-26 14:10 | 13.51024 | 79.85794 | 13947 ft | 363 kts | 317° |
| 2026-04-26 14:10 | 13.52808 | 79.83982 | 14511 ft | 367 kts | 317° |
| 2026-04-26 14:11 | 13.56474 | 79.80222 | 15720 ft | 374 kts | 315° |
| 2026-04-26 14:11 | 13.58158 | 79.78174 | 16326 ft | 377 kts | 309° |
| 2026-04-26 14:11 | 13.59774 | 79.76046 | 16929 ft | 380 kts | 308° |
| 2026-04-26 14:12 | 13.61400 | 79.73873 | 17509 ft | 383 kts | 308° |
| 2026-04-26 14:12 | 13.63031 | 79.71689 | 18077 ft | 386 kts | 308° |
| 2026-04-26 14:12 | 13.64679 | 79.69487 | 18534 ft | 390 kts | 308° |
| 2026-04-26 14:12 | 13.66336 | 79.67273 | 18975 ft | 393 kts | 307° |
| 2026-04-26 14:13 | 13.69692 | 79.62791 | 19862 ft | 399 kts | 307° |
| 2026-04-26 14:13 | 13.71397 | 79.60515 | 20288 ft | 402 kts | 307° |
| 2026-04-26 14:13 | 13.73107 | 79.58231 | 20727 ft | 405 kts | 307° |
| 2026-04-26 14:14 | 13.74810 | 79.55956 | 21170 ft | 408 kts | 307° |
| 2026-04-26 14:14 | 13.76544 | 79.53639 | 21626 ft | 410 kts | 307° |
| 2026-04-26 14:14 | 13.78293 | 79.51302 | 22070 ft | 413 kts | 307° |
| 2026-04-26 14:14 | 13.80055 | 79.48948 | 22541 ft | 416 kts | 307° |
| 2026-04-26 14:15 | 13.81828 | 79.46576 | 22980 ft | 419 kts | 307° |
| 2026-04-26 14:15 | 13.83614 | 79.44189 | 23411 ft | 423 kts | 306° |
| 2026-04-26 14:15 | 13.85419 | 79.41774 | 23812 ft | 425 kts | 306° |
| 2026-04-26 14:15 | 13.87216 | 79.39369 | 24313 ft | 424 kts | 306° |
| 2026-04-26 14:16 | 13.89018 | 79.36957 | 24785 ft | 425 kts | 306° |
| 2026-04-26 14:16 | 13.90828 | 79.34532 | 25148 ft | 429 kts | 305° |
| 2026-04-26 14:16 | 13.92652 | 79.32088 | 25551 ft | 431 kts | 306° |
| 2026-04-26 14:16 | 13.94484 | 79.29635 | 25962 ft | 433 kts | 306° |
| 2026-04-26 14:17 | 13.96301 | 79.27199 | 26416 ft | 434 kts | 306° |
| 2026-04-26 14:17 | 13.98145 | 79.24727 | 26780 ft | 437 kts | 306° |
| 2026-04-26 14:17 | 14.00005 | 79.22233 | 27192 ft | 438 kts | 306° |
| 2026-04-26 14:17 | 14.01869 | 79.19733 | 27569 ft | 440 kts | 306° |
| 2026-04-26 14:18 | 14.03740 | 79.17223 | 27954 ft | 442 kts | 306° |
| 2026-04-26 14:18 | 14.05618 | 79.14701 | 28319 ft | 445 kts | 305° |
| 2026-04-26 14:18 | 14.06929 | 79.12941 | 28575 ft | 446 kts | 305° |
| 2026-04-26 14:19 | 14.07648 | 79.11976 | 28706 ft | 447 kts | 305° |
| 2026-04-26 14:20 | 14.09561 | 79.09407 | 29050 ft | 449 kts | 305° |
| 2026-04-26 14:20 | 14.11472 | 79.06839 | 29374 ft | 452 kts | 305° |
| 2026-04-26 14:20 | 14.13350 | 79.04315 | 29719 ft | 454 kts | 305° |
| 2026-04-26 14:20 | 14.15275 | 79.01727 | 30001 ft | 457 kts | 305° |
| 2026-04-26 14:21 | 14.17216 | 78.99118 | 30294 ft | 458 kts | 305° |
| 2026-04-26 14:21 | 14.19152 | 78.96513 | 30686 ft | 457 kts | 304° |
| 2026-04-26 14:21 | 14.21059 | 78.93950 | 31134 ft | 455 kts | 304° |
| 2026-04-26 14:21 | 14.22976 | 78.91370 | 31596 ft | 452 kts | 304° |
| 2026-04-26 14:22 | 14.24884 | 78.88802 | 32016 ft | 450 kts | 304° |
| 2026-04-26 14:22 | 14.26778 | 78.86252 | 32427 ft | 448 kts | 303° |
| 2026-04-26 14:22 | 14.28674 | 78.83711 | 32849 ft | 446 kts | 303° |
| 2026-04-26 14:22 | 14.30575 | 78.81185 | 33283 ft | 444 kts | 303° |
| 2026-04-26 14:23 | 14.32472 | 78.78672 | 33541 ft | 445 kts | 304° |
| 2026-04-26 14:23 | 14.36258 | 78.73627 | 33348 ft | 444 kts | 303° |
| 2026-04-26 14:23 | 14.38005 | 78.71018 | 33144 ft | 441 kts | 297° |
| 2026-04-26 14:24 | 14.39398 | 78.68209 | 32979 ft | 438 kts | 289° |
| 2026-04-26 14:24 | 14.40345 | 78.65237 | 32810 ft | 435 kts | 280° |
| 2026-04-26 14:24 | 14.40794 | 78.62166 | 32782 ft | 432 kts | 271° |
| 2026-04-26 14:25 | 14.40162 | 78.56053 | 32784 ft | 429 kts | 252° |
| 2026-04-26 14:25 | 14.37613 | 78.50566 | 32784 ft | 428 kts | 234° |
| 2026-04-26 14:26 | 14.33413 | 78.46221 | 32806 ft | 431 kts | 217° |
| 2026-04-26 14:26 | 14.27994 | 78.43527 | 32810 ft | 437 kts | 198° |
| 2026-04-26 14:27 | 14.21945 | 78.42793 | 32823 ft | 442 kts | 183° |
| 2026-04-26 14:27 | 14.15817 | 78.43640 | 32824 ft | 450 kts | 167° |
| 2026-04-26 14:28 | 14.11035 | 78.45882 | 32826 ft | 459 kts | 150° |
| 2026-04-26 14:28 | 14.08549 | 78.47964 | 32826 ft | 467 kts | 137° |
| 2026-04-26 14:28 | 14.06565 | 78.50640 | 32845 ft | 474 kts | 123° |
| 2026-04-26 14:28 | 14.05251 | 78.53765 | 32848 ft | 481 kts | 110° |
| 2026-04-26 14:29 | 14.04386 | 78.57111 | 32845 ft | 483 kts | 106° |
| 2026-04-26 14:29 | 14.02025 | 78.63500 | 32846 ft | 476 kts | 123° |
| 2026-04-26 14:30 | 13.98673 | 78.69317 | 32831 ft | 475 kts | 125° |
| 2026-04-26 14:30 | 13.95254 | 78.75142 | 32668 ft | 475 kts | 125° |
| 2026-04-26 14:30 | 13.93543 | 78.78061 | 32411 ft | 476 kts | 124° |
| 2026-04-26 14:31 | 13.91830 | 78.80986 | 32164 ft | 476 kts | 124° |
| 2026-04-26 14:31 | 13.90121 | 78.83905 | 31918 ft | 477 kts | 124° |
| 2026-04-26 14:31 | 13.88407 | 78.86833 | 31677 ft | 477 kts | 124° |
| 2026-04-26 14:31 | 13.86690 | 78.89766 | 31433 ft | 477 kts | 124° |
| 2026-04-26 14:32 | 13.84980 | 78.92685 | 31203 ft | 475 kts | 124° |
| 2026-04-26 14:32 | 13.83276 | 78.95595 | 30979 ft | 473 kts | 124° |
| 2026-04-26 14:32 | 13.81582 | 78.98486 | 30741 ft | 471 kts | 124° |
| 2026-04-26 14:32 | 13.79895 | 79.01365 | 30510 ft | 469 kts | 124° |
| 2026-04-26 14:33 | 13.78212 | 79.04235 | 30284 ft | 467 kts | 123° |
| 2026-04-26 14:33 | 13.76555 | 79.07059 | 30055 ft | 465 kts | 123° |
| 2026-04-26 14:33 | 13.74887 | 79.09902 | 29814 ft | 464 kts | 123° |
| 2026-04-26 14:33 | 13.73220 | 79.12741 | 29547 ft | 462 kts | 123° |
| 2026-04-26 14:34 | 13.71566 | 79.15559 | 29275 ft | 460 kts | 123° |
| 2026-04-26 14:34 | 13.69915 | 79.18370 | 29006 ft | 458 kts | 123° |
| 2026-04-26 14:34 | 13.68270 | 79.21169 | 28751 ft | 456 kts | 123° |
| 2026-04-26 14:34 | 13.66635 | 79.23951 | 28492 ft | 454 kts | 123° |
| 2026-04-26 14:35 | 13.65004 | 79.26726 | 28228 ft | 452 kts | 123° |
| 2026-04-26 14:35 | 13.63384 | 79.29480 | 27933 ft | 448 kts | 123° |
| 2026-04-26 14:35 | 13.61771 | 79.32222 | 27389 ft | 446 kts | 123° |
| 2026-04-26 14:35 | 13.60167 | 79.34946 | 26745 ft | 446 kts | 122° |
| 2026-04-26 14:36 | 13.58560 | 79.37676 | 26099 ft | 446 kts | 122° |
| 2026-04-26 14:36 | 13.56982 | 79.40355 | 25475 ft | 445 kts | 122° |
| 2026-04-26 14:36 | 13.55372 | 79.43088 | 24825 ft | 445 kts | 122° |
| 2026-04-26 14:36 | 13.53769 | 79.45808 | 24227 ft | 444 kts | 122° |
| 2026-04-26 14:37 | 13.52183 | 79.48499 | 23762 ft | 439 kts | 122° |
| 2026-04-26 14:37 | 13.50604 | 79.51176 | 23264 ft | 434 kts | 122° |
| 2026-04-26 14:37 | 13.49054 | 79.53806 | 22727 ft | 429 kts | 122° |
| 2026-04-26 14:37 | 13.47507 | 79.56427 | 22077 ft | 426 kts | 122° |
| 2026-04-26 14:38 | 13.45970 | 79.59032 | 21456 ft | 424 kts | 121° |
| 2026-04-26 14:38 | 13.44453 | 79.61600 | 21042 ft | 416 kts | 121° |
| 2026-04-26 14:38 | 13.42972 | 79.64084 | 20743 ft | 406 kts | 123° |
| 2026-04-26 14:38 | 13.41398 | 79.66444 | 20509 ft | 395 kts | 127° |
| 2026-04-26 14:39 | 13.39699 | 79.68627 | 20259 ft | 388 kts | 131° |
| 2026-04-26 14:39 | 13.37872 | 79.70612 | 20018 ft | 373 kts | 136° |
| 2026-04-26 14:39 | 13.35952 | 79.72320 | 19764 ft | 360 kts | 143° |
| 2026-04-26 14:39 | 13.33835 | 79.73799 | 19507 ft | 373 kts | 149° |
| 2026-04-26 14:40 | 13.31550 | 79.75080 | 18743 ft | 377 kts | 154° |
| 2026-04-26 14:40 | 13.29143 | 79.76123 | 18051 ft | 374 kts | 160° |
| 2026-04-26 14:40 | 13.26645 | 79.76930 | 16874 ft | 380 kts | 164° |
| 2026-04-26 14:40 | 13.24018 | 79.77512 | 15582 ft | 390 kts | 169° |
| 2026-04-26 14:41 | 13.21293 | 79.77881 | 14292 ft | 399 kts | 173° |
| 2026-04-26 14:41 | 13.18489 | 79.78056 | 12874 ft | 408 kts | 177° |
| 2026-04-26 14:41 | 13.15636 | 79.78042 | 11760 ft | 407 kts | 180° |
| 2026-04-26 14:41 | 13.12893 | 79.78080 | 11136 ft | 390 kts | 171° |
| 2026-04-26 14:42 | 13.10347 | 79.78685 | 10902 ft | 361 kts | 157° |
| 2026-04-26 14:42 | 13.08176 | 79.79801 | 10769 ft | 341 kts | 142° |
| 2026-04-26 14:42 | 13.06434 | 79.81388 | 10662 ft | 335 kts | 126° |
| 2026-04-26 14:42 | 13.05193 | 79.83385 | 10505 ft | 328 kts | 110° |
| 2026-04-26 14:43 | 13.04642 | 79.85612 | 10273 ft | 321 kts | 91° |
| 2026-04-26 14:43 | 13.04627 | 79.87891 | 10048 ft | 318 kts | 85° |
| 2026-04-26 14:43 | 13.04738 | 79.90149 | 9809 ft | 316 kts | 84° |
| 2026-04-26 14:43 | 13.04862 | 79.92385 | 9123 ft | 314 kts | 84° |
| 2026-04-26 14:44 | 13.04979 | 79.94573 | 8770 ft | 298 kts | 84° |
| 2026-04-26 14:44 | 13.05083 | 79.96632 | 8519 ft | 281 kts | 84° |
| 2026-04-26 14:44 | 13.05182 | 79.98610 | 8273 ft | 275 kts | 84° |
| 2026-04-26 14:44 | 13.05280 | 80.00571 | 8041 ft | 276 kts | 85° |
| 2026-04-26 14:45 | 13.05377 | 80.02539 | 7804 ft | 276 kts | 85° |
| 2026-04-26 14:45 | 13.05441 | 80.03805 | 7652 ft | 276 kts | 84° |
| 2026-04-26 14:45 | 13.05903 | 80.06398 | 7341 ft | 273 kts | 71° |
| 2026-04-26 14:45 | 13.06528 | 80.08228 | 7214 ft | 273 kts | 69° |
| 2026-04-26 14:46 | 13.07200 | 80.10054 | 7098 ft | 274 kts | 68° |
| 2026-04-26 14:46 | 13.07879 | 80.11884 | 7019 ft | 274 kts | 68° |
| 2026-04-26 14:46 | 13.08555 | 80.13712 | 6995 ft | 274 kts | 68° |
| 2026-04-26 14:46 | 13.09228 | 80.15539 | 6991 ft | 274 kts | 68° |
| 2026-04-26 14:47 | 13.09902 | 80.17371 | 6991 ft | 274 kts | 69° |
| 2026-04-26 14:47 | 13.10571 | 80.19193 | 6993 ft | 273 kts | 69° |
| 2026-04-26 14:47 | 13.11236 | 80.21003 | 6989 ft | 272 kts | 69° |
| 2026-04-26 14:47 | 13.11902 | 80.22818 | 6990 ft | 272 kts | 69° |
| 2026-04-26 14:48 | 13.12572 | 80.24647 | 6989 ft | 273 kts | 69° |
| 2026-04-26 14:48 | 13.13248 | 80.26468 | 6986 ft | 272 kts | 68° |
| 2026-04-26 14:48 | 13.13937 | 80.28261 | 6607 ft | 274 kts | 68° |
| 2026-04-26 14:48 | 13.14645 | 80.30084 | 6141 ft | 275 kts | 68° |
| 2026-04-26 14:49 | 13.15344 | 80.31884 | 5933 ft | 266 kts | 68° |
| 2026-04-26 14:49 | 13.15937 | 80.33638 | 5757 ft | 255 kts | 79° |
| 2026-04-26 14:49 | 13.15839 | 80.35404 | 5573 ft | 247 kts | 110° |
| 2026-04-26 14:49 | 13.14828 | 80.36767 | 5386 ft | 240 kts | 144° |
| 2026-04-26 14:50 | 13.13294 | 80.37356 | 5188 ft | 235 kts | 169° |
| 2026-04-26 14:50 | 13.11682 | 80.37546 | 4925 ft | 233 kts | 173° |
| 2026-04-26 14:50 | 13.10077 | 80.37669 | 4666 ft | 230 kts | 174° |
| 2026-04-26 14:50 | 13.08504 | 80.37678 | 4391 ft | 229 kts | 192° |
| 2026-04-26 14:51 | 13.07133 | 80.36875 | 4120 ft | 230 kts | 221° |
| 2026-04-26 14:51 | 13.06084 | 80.35586 | 3611 ft | 243 kts | 236° |
| 2026-04-26 14:51 | 13.05374 | 80.33968 | 3133 ft | 251 kts | 247° |
| 2026-04-26 14:51 | 13.04793 | 80.32318 | 3031 ft | 239 kts | 246° |
| 2026-04-26 14:52 | 13.04225 | 80.30774 | 2935 ft | 223 kts | 245° |
| 2026-04-26 14:52 | 13.03688 | 80.29350 | 2791 ft | 208 kts | 245° |
| 2026-04-26 14:52 | 13.03178 | 80.28004 | 2566 ft | 200 kts | 244° |
| 2026-04-26 14:52 | 13.02683 | 80.26689 | 2220 ft | 198 kts | 245° |
| 2026-04-26 14:53 | 13.02524 | 80.25285 | 1886 ft | 202 kts | 279° |
| 2026-04-26 14:53 | 13.03246 | 80.24042 | 1792 ft | 211 kts | 317° |
| 2026-04-26 14:53 | 13.04587 | 80.23449 | 1792 ft | 214 kts | 355° |
| 2026-04-26 14:53 | 13.06020 | 80.23755 | 1798 ft | 210 kts | 33° |
| 2026-04-26 14:54 | 13.06995 | 80.24801 | 1795 ft | 203 kts | 65° |
| 2026-04-26 14:54 | 13.07564 | 80.26088 | 1793 ft | 204 kts | 72° |
| 2026-04-26 14:54 | 13.07982 | 80.27510 | 1793 ft | 199 kts | 93° |
| 2026-04-26 14:54 | 13.07657 | 80.28788 | 1791 ft | 184 kts | 130° |
| 2026-04-26 14:55 | 13.06659 | 80.29501 | 1783 ft | 176 kts | 168° |
| 2026-04-26 14:55 | 13.05460 | 80.29342 | 1794 ft | 179 kts | 204° |
| 2026-04-26 14:55 | 13.04499 | 80.28613 | 1775 ft | 163 kts | 218° |
| 2026-04-26 14:55 | 13.03730 | 80.27887 | 1765 ft | 144 kts | 219° |
| 2026-04-26 14:56 | 13.03072 | 80.27100 | 1789 ft | 144 kts | 229° |
| 2026-04-26 14:56 | 13.02577 | 80.26234 | 1686 ft | 139 kts | 237° |
| 2026-04-26 14:56 | 13.02198 | 80.25330 | 1441 ft | 137 kts | 241° |
| 2026-04-26 14:56 | 13.01842 | 80.24429 | 1247 ft | 135 kts | 241° |
| 2026-04-26 14:57 | 13.01507 | 80.23526 | 1079 ft | 135 kts | 242° |
| 2026-04-26 14:57 | 13.01163 | 80.22626 | 859 ft | 136 kts | 244° |
| 2026-04-26 14:57 | 13.00840 | 80.21725 | 726 ft | 134 kts | 243° |
| 2026-04-26 14:57 | 13.00501 | 80.20844 | 635 ft | 135 kts | 244° |
| 2026-04-26 14:58 | 13.00154 | 80.19904 | 457 ft | 141 kts | 242° |
| 2026-04-26 14:58 | 12.99801 | 80.18987 | 254 ft | 137 kts | 242° |
| 2026-04-26 14:58 | 12.99467 | 80.18108 | 52 ft | 130 kts | 244° |
| 2026-04-26 14:58 | 12.99160 | 80.17286 | 49 ft | 115 kts | 248° |
| 2026-04-26 14:59 | 12.98925 | 80.16656 | 51 ft | 55 kts | 248° |
| 2026-04-26 14:59 | 12.98751 | 80.16362 | 51 ft | 43 kts | 219° |
| 2026-04-26 14:59 | 12.98548 | 80.16174 | 50 ft | 32 kts | 239° |
| 2026-04-26 14:59 | 12.98487 | 80.16129 | 50 ft | 8 kts | 180° |
| 2026-04-26 15:00 | 12.98443 | 80.16148 | 50 ft | 5 kts | 155° |
| 2026-04-26 15:00 | 12.98408 | 80.16167 | 50 ft | 6 kts | 145° |
| 2026-04-26 15:00 | 12.98384 | 80.16197 | 51 ft | 5 kts | 126° |
| 2026-04-26 15:00 | 12.98359 | 80.16221 | 51 ft | 2 kts | 143° |
| 2026-04-26 15:01 | 12.98359 | 80.16225 | 51 ft | 0 kts | 100° |